Time;durP1;ratioP1;P1;durP2;ratioP2;P2;SDS_P1;SDS_P2;PMS_P1;PMS_P2;Temp;Humidity;BMP_temperature;BMP_pressure;BME280_temperature;BME280_humidity;BME280_pressure;Samples;Min_cycle;Max_cycle;Signal;HPM_P1;HPM_P2
2023/06/09 00:00:49;;;;;;;1.20;0.50;;;15.40;99.90;;;;;;4973789;28;20667;-77
2023/06/09 00:03:21;;;;;;;2.03;0.50;;;15.60;99.90;;;;;;4974665;28;20204;-75
2023/06/09 00:05:52;;;;;;;3.13;0.80;;;15.70;99.90;;;;;;4974720;28;20219;-83
2023/06/09 00:08:22;;;;;;;1.75;0.70;;;15.70;99.90;;;;;;4974667;28;20224;-77
2023/06/09 00:10:53;;;;;;;2.67;0.70;;;15.80;99.90;;;;;;4974758;28;20264;-76
2023/06/09 00:13:24;;;;;;;1.38;0.75;;;15.90;99.90;;;;;;4974578;28;20656;-82
2023/06/09 00:15:57;;;;;;;4.05;0.75;;;16.00;99.90;;;;;;4971883;28;20204;-75
2023/06/09 00:18:28;;;;;;;2.72;0.68;;;16.10;99.90;;;;;;4973947;28;20200;-79
2023/06/09 00:20:59;;;;;;;3.97;0.70;;;16.10;99.90;;;;;;4973922;28;20285;-78
2023/06/09 00:23:30;;;;;;;1.48;0.50;;;16.20;99.90;;;;;;4974617;28;20192;-75
2023/06/09 00:26:02;;;;;;;3.17;0.60;;;16.30;99.90;;;;;;4974395;28;20244;-77
2023/06/09 00:28:33;;;;;;;2.38;0.80;;;16.30;99.90;;;;;;4974839;28;20232;-79
2023/06/09 00:31:06;;;;;;;1.85;0.50;;;16.40;99.90;;;;;;4974580;28;20212;-77
2023/06/09 00:33:36;;;;;;;2.35;0.63;;;16.50;99.90;;;;;;4974435;28;20279;-76
2023/06/09 00:36:07;;;;;;;1.38;0.63;;;16.60;99.90;;;;;;4974544;28;20192;-78
2023/06/09 00:38:38;;;;;;;4.47;0.80;;;16.60;99.90;;;;;;4974831;28;20196;-77
2023/06/09 00:41:09;;;;;;;3.60;0.95;;;16.70;99.90;;;;;;4976286;28;20624;-76
2023/06/09 00:43:40;;;;;;;5.60;0.80;;;16.70;99.90;;;;;;4973208;28;20200;-77
2023/06/09 00:46:13;;;;;;;4.90;0.73;;;16.80;99.90;;;;;;4974956;28;20592;-87
2023/06/09 00:48:44;;;;;;;1.27;0.60;;;16.80;99.90;;;;;;4974646;28;20218;-76
2023/06/09 00:51:15;;;;;;;1.73;0.70;;;16.90;99.90;;;;;;4973762;28;20200;-76
2023/06/09 00:53:46;;;;;;;1.40;0.60;;;17.00;99.90;;;;;;4976919;28;20200;-83
2023/06/09 00:56:18;;;;;;;3.33;0.70;;;17.10;99.90;;;;;;4969773;28;20232;-78
2023/06/09 00:58:49;;;;;;;3.47;0.82;;;17.10;99.90;;;;;;4958906;28;20240;-80
2023/06/09 01:01:21;;;;;;;2.97;0.80;;;17.10;99.90;;;;;;4958960;28;20203;-78
2023/06/09 01:03:52;;;;;;;1.88;0.70;;;17.00;99.90;;;;;;4961012;28;20210;-78
2023/06/09 01:06:30;;;;;;;5.40;1.00;;;16.90;99.90;;;;;;4958913;28;20217;-83
2023/06/09 01:09:05;;;;;;;3.25;0.98;;;16.80;99.90;;;;;;4958610;28;20220;-76
2023/06/09 01:11:46;;;;;;;1.48;0.70;;;16.80;99.90;;;;;;4958591;28;20200;-83
2023/06/09 01:14:26;;;;;;;2.65;0.70;;;16.90;99.90;;;;;;4969002;28;20197;-87
2023/06/09 01:17:07;;;;;;;2.45;0.80;;;16.90;99.90;;;;;;4958755;28;20275;-77
2023/06/09 01:19:41;;;;;;;2.90;0.80;;;17.00;99.90;;;;;;4958621;28;20267;-75
2023/06/09 01:22:26;;;;;;;1.90;0.50;;;17.20;99.90;;;;;;4958378;28;20208;-74
2023/06/09 01:25:12;;;;;;;1.35;0.88;;;17.30;99.90;;;;;;4958255;28;20200;-78
2023/06/09 01:27:46;;;;;;;1.80;0.60;;;17.40;99.90;;;;;;4971152;28;20208;-77
2023/06/09 01:30:18;;;;;;;1.73;0.57;;;17.50;99.90;;;;;;4974444;28;20698;-76
2023/06/09 01:32:50;;;;;;;3.90;0.70;;;17.50;99.90;;;;;;4977526;28;20638;-80
2023/06/09 01:35:21;;;;;;;2.25;0.40;;;17.60;99.90;;;;;;4977999;28;20535;-78
2023/06/09 01:37:53;;;;;;;1.55;0.60;;;17.60;99.90;;;;;;4983502;28;20545;-79
2023/06/09 01:40:24;;;;;;;2.17;0.55;;;17.60;99.90;;;;;;4977896;28;20201;-77
2023/06/09 01:42:59;;;;;;;2.42;0.65;;;17.60;99.90;;;;;;4977603;28;20193;-75
2023/06/09 01:45:30;;;;;;;3.25;0.50;;;17.60;99.90;;;;;;4976440;28;20542;-78
2023/06/09 01:48:01;;;;;;;3.05;0.93;;;17.70;99.90;;;;;;4977265;28;20239;-76
2023/06/09 01:50:40;;;;;;;5.03;0.90;;;17.70;99.90;;;;;;4976839;28;20192;-81
2023/06/09 01:53:16;;;;;;;4.82;0.88;;;17.70;99.90;;;;;;4977215;28;20196;-91
2023/06/09 01:55:52;;;;;;;1.48;0.57;;;17.70;99.90;;;;;;4976175;28;20565;-81
2023/06/09 02:01:01;;;;;;;2.55;0.50;;;17.70;99.90;;;;;;4990855;23;20244;-72
2023/06/09 02:03:34;;;;;;;3.00;0.70;;;17.70;99.90;;;;;;4974862;28;20200;-72
2023/06/09 02:06:07;;;;;;;2.15;0.80;;;17.60;99.90;;;;;;4976073;28;20200;-72
2023/06/09 02:08:38;;;;;;;1.35;0.45;;;17.60;99.90;;;;;;4976733;28;20227;-72
2023/06/09 02:11:11;;;;;;;1.52;0.50;;;17.60;99.90;;;;;;4976501;28;20200;-72
2023/06/09 02:13:44;;;;;;;1.42;0.55;;;17.60;99.90;;;;;;4970509;28;20215;-72
2023/06/09 02:16:16;;;;;;;1.65;0.50;;;17.50;99.90;;;;;;4973865;28;20196;-73
2023/06/09 02:18:48;;;;;;;3.70;0.73;;;17.60;99.90;;;;;;4975704;28;20592;-72
2023/06/09 02:21:20;;;;;;;2.95;0.70;;;17.60;99.90;;;;;;4975611;28;20211;-72
2023/06/09 02:23:51;;;;;;;2.53;1.13;;;17.60;99.90;;;;;;4976439;28;20197;-72
2023/06/09 02:26:22;;;;;;;0.73;0.50;;;17.60;99.90;;;;;;4975132;28;20200;-73
2023/06/09 02:28:55;;;;;;;3.65;0.60;;;17.60;99.90;;;;;;4975498;28;20330;-72
2023/06/09 02:31:26;;;;;;;3.42;0.50;;;17.60;99.90;;;;;;4974820;28;20594;-72
2023/06/09 02:33:57;;;;;;;0.88;0.40;;;17.60;99.90;;;;;;4976034;28;20199;-72
2023/06/09 02:36:29;;;;;;;1.95;0.55;;;17.70;99.90;;;;;;4976335;28;20200;-72
2023/06/09 02:39:00;;;;;;;1.90;0.63;;;17.70;99.90;;;;;;4976251;28;20512;-72
2023/06/09 02:41:32;;;;;;;2.63;0.52;;;17.70;99.90;;;;;;4976238;28;20203;-71
2023/06/09 02:44:05;;;;;;;3.22;1.00;;;17.80;99.90;;;;;;4972823;28;20205;-72
2023/06/09 02:46:36;;;;;;;4.07;0.98;;;17.80;99.90;;;;;;4956975;28;20197;-72
2023/06/09 02:49:07;;;;;;;7.63;3.72;;;17.90;99.90;;;;;;4971958;28;20224;-72
2023/06/09 02:51:39;;;;;;;1.48;0.70;;;18.00;99.90;;;;;;4974863;28;20203;-71
2023/06/09 02:54:10;;;;;;;1.98;0.60;;;18.00;99.90;;;;;;4975309;28;20196;-74
2023/06/09 02:56:41;;;;;;;3.28;0.73;;;18.10;99.90;;;;;;4975284;28;20566;-72
2023/06/09 02:59:14;;;;;;;1.77;0.68;;;18.30;99.90;;;;;;4975655;28;20240;-72
2023/06/09 03:01:45;;;;;;;2.67;0.40;;;18.30;99.90;;;;;;4975087;28;20204;-72
2023/06/09 03:04:17;;;;;;;2.50;0.60;;;18.40;99.90;;;;;;4974985;28;20224;-72
2023/06/09 03:06:49;;;;;;;1.17;0.40;;;18.40;99.90;;;;;;4975618;28;20636;-71
2023/06/09 03:09:21;;;;;;;2.30;0.57;;;18.30;99.90;;;;;;4975598;28;20212;-71
2023/06/09 03:11:52;;;;;;;1.00;0.40;;;18.30;99.90;;;;;;4975439;28;20196;-71
2023/06/09 03:14:25;;;;;;;3.08;0.50;;;18.20;99.90;;;;;;4972944;28;20196;-73
2023/06/09 03:16:57;;;;;;;2.53;0.50;;;18.20;99.90;;;;;;4970115;28;20204;-72
2023/06/09 03:19:29;;;;;;;1.92;0.45;;;18.30;99.90;;;;;;4975516;28;20567;-72
2023/06/09 03:22:03;;;;;;;2.03;0.35;;;18.30;99.90;;;;;;4975310;28;20196;-72
2023/06/09 03:24:34;;;;;;;3.55;0.70;;;18.30;99.90;;;;;;4974723;28;20666;-71
2023/06/09 03:27:05;;;;;;;3.30;0.60;;;18.40;99.90;;;;;;4974507;28;20238;-72
2023/06/09 03:29:38;;;;;;;1.27;0.50;;;18.50;99.90;;;;;;4975283;28;20212;-72
2023/06/09 03:32:10;;;;;;;4.60;0.50;;;18.60;99.90;;;;;;4975272;28;20195;-72
2023/06/09 03:34:42;;;;;;;2.60;0.63;;;18.80;99.90;;;;;;4975077;28;20222;-72
2023/06/09 03:37:14;;;;;;;4.22;0.55;;;18.80;99.90;;;;;;4973646;28;20604;-71
2023/06/09 03:39:45;;;;;;;3.40;0.70;;;18.90;99.90;;;;;;4974437;28;20243;-70
2023/06/09 03:42:16;;;;;;;1.45;0.45;;;19.00;99.90;;;;;;4975176;28;20528;-71
2023/06/09 03:44:55;;;;;;;1.98;0.57;;;19.10;99.90;;;;;;4974070;28;20200;-73
2023/06/09 03:47:26;;;;;;;1.27;0.40;;;19.10;99.90;;;;;;4974532;28;20204;-72
2023/06/09 03:49:57;;;;;;;1.38;0.28;;;19.20;99.90;;;;;;4974679;28;20224;-72
2023/06/09 03:52:30;;;;;;;2.22;0.40;;;19.20;99.90;;;;;;4974537;28;20199;-72
2023/06/09 03:55:01;;;;;;;0.40;0.38;;;19.30;99.90;;;;;;4972520;28;20211;-72
2023/06/09 03:57:32;;;;;;;2.72;0.50;;;19.40;99.90;;;;;;4975055;28;20554;-72
2023/06/09 04:00:06;;;;;;;0.63;0.30;;;19.40;99.90;;;;;;4973621;28;20243;-72
2023/06/09 04:02:37;;;;;;;1.10;0.30;;;19.50;99.90;;;;;;4973981;28;20671;-72
2023/06/09 04:05:08;;;;;;;1.20;0.40;;;19.50;99.90;;;;;;4974653;28;20199;-72
2023/06/09 04:07:39;;;;;;;0.30;0.30;;;19.60;99.90;;;;;;4974798;28;20643;-72
2023/06/09 04:10:11;;;;;;;1.75;0.32;;;19.70;99.90;;;;;;4974106;28;20575;-72
2023/06/09 04:12:43;;;;;;;0.40;0.30;;;19.80;99.90;;;;;;4974189;28;20203;-73
2023/06/09 04:15:16;;;;;;;3.25;0.40;;;20.00;99.90;;;;;;4974759;28;20196;-72
2023/06/09 04:17:48;;;;;;;0.93;0.50;;;19.90;99.90;;;;;;4973696;28;20196;-72
2023/06/09 04:20:24;;;;;;;2.13;0.40;;;20.00;99.90;;;;;;4974386;28;20214;-72
2023/06/09 04:22:56;;;;;;;2.78;0.70;;;20.10;99.90;;;;;;4973929;28;20204;-72
2023/06/09 04:25:27;;;;;;;0.82;0.30;;;20.10;99.90;;;;;;4974498;28;20192;-72
2023/06/09 04:28:00;;;;;;;3.03;0.30;;;20.10;99.90;;;;;;4974608;28;20204;-71
2023/06/09 04:30:34;;;;;;;1.58;0.30;;;20.10;99.90;;;;;;4973521;28;20556;-72
2023/06/09 04:33:05;;;;;;;2.15;0.30;;;20.10;99.90;;;;;;4973633;28;20561;-72
2023/06/09 04:35:37;;;;;;;1.35;0.40;;;20.10;99.90;;;;;;4974573;28;20259;-72
2023/06/09 04:38:08;;;;;;;2.67;0.40;;;20.10;99.90;;;;;;4971786;28;20196;-73
2023/06/09 04:40:39;;;;;;;0.30;0.20;;;20.10;99.90;;;;;;4972752;28;20208;-74
2023/06/09 04:43:11;;;;;;;1.67;0.43;;;20.10;99.90;;;;;;4972568;28;20599;-73
2023/06/09 04:45:44;;;;;;;1.45;0.43;;;20.10;99.90;;;;;;4973746;28;20287;-73
2023/06/09 04:48:15;;;;;;;1.23;0.50;;;20.10;99.90;;;;;;4974520;28;20195;-73
2023/06/09 04:50:47;;;;;;;0.30;0.20;;;20.10;99.90;;;;;;4974527;28;20263;-72
2023/06/09 04:53:19;;;;;;;0.93;0.50;;;20.10;99.90;;;;;;4973637;28;20198;-73
2023/06/09 04:55:52;;;;;;;2.15;0.30;;;20.00;99.90;;;;;;4974868;28;20196;-72
2023/06/09 04:58:25;;;;;;;1.38;0.30;;;20.10;99.90;;;;;;4974375;28;20307;-73
2023/06/09 05:00:59;;;;;;;0.28;0.28;;;20.10;99.90;;;;;;4974104;28;20271;-73
2023/06/09 05:03:30;;;;;;;0.30;0.20;;;20.00;99.90;;;;;;4974056;28;20228;-73
2023/06/09 05:06:01;;;;;;;1.20;0.30;;;20.00;99.90;;;;;;4972616;28;20204;-73
2023/06/09 05:08:32;;;;;;;1.85;0.60;;;20.10;99.90;;;;;;4974133;28;20199;-73
2023/06/09 05:11:04;;;;;;;3.70;0.45;;;20.10;99.90;;;;;;4973640;28;20560;-73
2023/06/09 05:13:35;;;;;;;1.13;0.30;;;20.10;99.90;;;;;;4973531;28;20204;-74
2023/06/09 05:16:08;;;;;;;1.83;0.43;;;20.00;99.90;;;;;;4974184;28;20196;-74
2023/06/09 05:18:39;;;;;;;1.42;0.32;;;20.00;99.90;;;;;;4972368;28;20205;-73
2023/06/09 05:21:12;;;;;;;1.80;0.40;;;20.00;99.90;;;;;;4971160;28;20205;-73
2023/06/09 05:23:43;;;;;;;0.65;0.28;;;20.00;99.90;;;;;;4971904;28;20291;-73
2023/06/09 05:26:14;;;;;;;2.75;0.40;;;19.90;99.90;;;;;;4971487;28;20204;-74
2023/06/09 05:28:45;;;;;;;2.13;0.30;;;19.90;99.90;;;;;;4972882;28;20212;-73
2023/06/09 05:31:18;;;;;;;1.50;0.50;;;19.90;99.90;;;;;;4970677;28;20212;-74
2023/06/09 05:33:49;;;;;;;0.70;0.40;;;19.90;99.90;;;;;;4954733;28;20252;-75
2023/06/09 05:36:20;;;;;;;1.60;0.60;;;19.90;99.90;;;;;;4957923;28;20193;-73
2023/06/09 05:38:51;;;;;;;0.95;0.50;;;19.80;99.90;;;;;;4961987;28;20204;-74
2023/06/09 05:41:23;;;;;;;3.17;0.40;;;19.70;99.90;;;;;;4976401;28;20192;-73
2023/06/09 05:43:57;;;;;;;3.50;0.45;;;19.70;99.90;;;;;;4977438;28;20192;-73
2023/06/09 05:46:30;;;;;;;0.73;0.30;;;19.70;99.90;;;;;;4977165;28;20284;-72
2023/06/09 05:49:02;;;;;;;1.08;0.52;;;19.70;99.90;;;;;;4976488;28;20549;-73
2023/06/09 05:51:35;;;;;;;1.20;0.40;;;19.60;99.90;;;;;;4973650;28;20224;-73
2023/06/09 05:54:06;;;;;;;1.92;0.40;;;19.50;99.90;;;;;;4977233;28;20644;-72
2023/06/09 05:56:38;;;;;;;1.05;0.40;;;19.40;99.90;;;;;;4977130;28;20203;-73
2023/06/09 05:59:09;;;;;;;0.82;0.30;;;19.40;99.90;;;;;;4977035;28;20294;-74
2023/06/09 06:01:42;;;;;;;1.67;0.45;;;19.30;99.90;;;;;;4976836;28;20200;-72
2023/06/09 06:04:14;;;;;;;1.52;0.40;;;19.20;99.90;;;;;;4976048;28;20192;-73
2023/06/09 06:06:45;;;;;;;1.20;0.50;;;19.20;99.90;;;;;;4973278;28;20200;-73
2023/06/09 06:09:16;;;;;;;0.73;0.38;;;19.20;99.90;;;;;;4973373;28;20203;-73
2023/06/09 06:11:48;;;;;;;1.23;0.40;;;19.20;99.90;;;;;;4972468;28;20599;-73
2023/06/09 06:14:19;;;;;;;2.40;0.40;;;19.10;99.90;;;;;;4974627;28;20204;-73
2023/06/09 06:16:52;;;;;;;3.35;0.50;;;19.10;99.90;;;;;;4976056;28;20212;-74
2023/06/09 06:19:23;;;;;;;1.52;0.47;;;19.00;99.90;;;;;;4977044;28;20193;-75
2023/06/09 06:21:54;;;;;;;1.88;0.40;;;18.90;99.90;;;;;;4975169;28;20223;-72
2023/06/09 06:24:25;;;;;;;3.33;0.55;;;18.90;99.90;;;;;;4973912;28;20694;-74
2023/06/09 06:26:56;;;;;;;1.30;0.50;;;18.80;99.90;;;;;;4971426;28;20200;-74
2023/06/09 06:29:29;;;;;;;1.42;0.60;;;18.70;99.90;;;;;;4975035;28;20235;-78
2023/06/09 06:32:02;;;;;;;2.28;0.60;;;18.60;99.90;;;;;;4972982;28;20251;-73
2023/06/09 06:34:33;;;;;;;1.42;0.60;;;18.60;99.90;;;;;;4973834;28;20232;-74
2023/06/09 06:37:04;;;;;;;2.28;0.85;;;18.50;99.90;;;;;;4973874;28;20255;-73
2023/06/09 06:39:36;;;;;;;2.05;0.80;;;18.50;99.90;;;;;;4977392;28;20541;-73
2023/06/09 06:42:07;;;;;;;2.38;0.70;;;18.40;99.90;;;;;;4975546;28;20207;-74
2023/06/09 06:44:38;;;;;;;2.58;0.77;;;18.30;99.90;;;;;;4973084;28;20200;-74
2023/06/09 06:47:12;;;;;;;2.35;0.80;;;18.30;99.90;;;;;;4976552;28;20192;-73
2023/06/09 06:49:43;;;;;;;2.90;1.20;;;18.20;99.90;;;;;;4994176;28;20196;-74
2023/06/09 06:52:14;;;;;;;3.28;1.40;;;18.20;99.90;;;;;;4975229;28;20568;-74
2023/06/09 06:54:45;;;;;;;2.17;1.25;;;18.10;99.90;;;;;;4962502;28;20208;-75
2023/06/09 06:57:16;;;;;;;2.65;1.00;;;18.10;99.90;;;;;;4976313;28;20192;-74
2023/06/09 06:59:47;;;;;;;2.75;0.90;;;18.00;99.90;;;;;;4975639;28;20240;-74
2023/06/09 07:02:20;;;;;;;2.08;0.80;;;18.00;99.90;;;;;;4976743;28;20197;-74
2023/06/09 07:04:51;;;;;;;2.97;0.82;;;17.90;99.90;;;;;;4975086;28;20204;-74
2023/06/09 07:07:25;;;;;;;1.65;0.70;;;17.90;99.90;;;;;;4973881;28;20652;-74
2023/06/09 07:09:56;;;;;;;3.00;1.05;;;17.80;99.90;;;;;;4968385;28;20605;-74
2023/06/09 07:12:28;;;;;;;4.93;1.20;;;17.70;99.90;;;;;;4973889;28;20204;-74
2023/06/09 07:14:59;;;;;;;1.77;1.10;;;17.70;99.90;;;;;;4973378;28;20200;-74
2023/06/09 07:17:32;;;;;;;3.08;1.13;;;17.70;99.90;;;;;;4971295;28;20554;-74
2023/06/09 07:20:04;;;;;;;1.60;0.80;;;17.60;99.90;;;;;;4960177;28;20212;-74
2023/06/09 07:22:35;;;;;;;3.58;0.98;;;17.60;99.90;;;;;;4969295;28;20247;-74
2023/06/09 07:25:07;;;;;;;3.03;0.90;;;17.50;99.90;;;;;;4971904;28;20200;-73
2023/06/09 07:27:38;;;;;;;3.22;1.30;;;17.50;99.90;;;;;;4973822;28;20200;-74
2023/06/09 07:30:10;;;;;;;2.20;0.90;;;17.50;99.90;;;;;;4974086;28;20216;-73
2023/06/09 07:32:43;;;;;;;3.65;1.27;;;17.50;99.90;;;;;;4974671;28;20671;-73
2023/06/09 07:35:14;;;;;;;2.95;1.02;;;17.40;99.90;;;;;;4974140;28;20200;-73
2023/06/09 07:37:46;;;;;;;4.90;1.27;;;17.40;99.90;;;;;;4972447;28;20222;-73
2023/06/09 07:40:17;;;;;;;2.45;1.15;;;17.30;99.90;;;;;;4970763;28;20215;-73
2023/06/09 07:42:48;;;;;;;2.75;1.10;;;17.30;99.90;;;;;;4972375;28;20247;-74
2023/06/09 07:45:19;;;;;;;2.42;1.20;;;17.30;99.90;;;;;;4970524;28;20207;-74
2023/06/09 07:47:52;;;;;;;4.20;1.50;;;17.30;99.90;;;;;;4972688;28;20204;-74
2023/06/09 07:50:23;;;;;;;5.28;1.30;;;17.20;99.90;;;;;;4966515;28;20225;-73
2023/06/09 07:52:55;;;;;;;2.97;1.40;;;17.20;99.90;;;;;;4976427;28;20203;-73
2023/06/09 07:55:26;;;;;;;3.05;1.20;;;17.20;99.90;;;;;;4982415;28;20290;-73
2023/06/09 07:57:57;;;;;;;3.17;1.50;;;17.20;99.90;;;;;;4978572;28;20196;-73
2023/06/09 08:00:28;;;;;;;4.05;1.70;;;17.10;99.90;;;;;;4971192;28;20753;-73
2023/06/09 08:03:05;;;;;;;3.40;1.33;;;17.10;99.90;;;;;;4972016;28;20208;-73
2023/06/09 08:05:36;;;;;;;2.38;1.45;;;17.10;99.90;;;;;;4974152;28;20204;-74
2023/06/09 08:08:08;;;;;;;1.58;1.00;;;17.00;99.90;;;;;;4973536;28;20292;-73
2023/06/09 08:10:39;;;;;;;3.30;1.48;;;17.00;99.90;;;;;;4969824;28;20246;-73
2023/06/09 08:13:13;;;;;;;2.72;1.48;;;16.90;99.90;;;;;;4972107;28;20203;-73
2023/06/09 08:15:46;;;;;;;3.95;1.30;;;16.80;99.90;;;;;;4974690;28;20658;-73
2023/06/09 08:18:19;;;;;;;4.82;1.63;;;16.80;99.90;;;;;;4972854;28;20652;-74
2023/06/09 08:20:50;;;;;;;4.47;1.83;;;16.70;99.90;;;;;;4973745;28;20228;-73
2023/06/09 08:23:21;;;;;;;2.22;1.70;;;16.70;99.90;;;;;;4971995;28;20211;-73
2023/06/09 08:25:53;;;;;;;3.28;1.50;;;16.70;99.90;;;;;;4973314;28;20200;-73
2023/06/09 08:28:24;;;;;;;5.15;1.83;;;16.60;99.90;;;;;;4964585;28;20200;-74
2023/06/09 08:30:55;;;;;;;3.13;1.50;;;16.60;99.90;;;;;;4973688;28;20216;-73
2023/06/09 08:33:29;;;;;;;4.93;1.60;;;16.60;99.90;;;;;;4973534;28;20301;-74
2023/06/09 08:36:03;;;;;;;6.70;1.63;;;16.60;99.90;;;;;;4972345;28;20200;-74
2023/06/09 08:38:36;;;;;;;5.18;1.70;;;16.60;99.90;;;;;;4972643;28;20664;-74
2023/06/09 08:41:11;;;;;;;4.40;1.63;;;16.50;99.90;;;;;;4972138;28;20216;-74
2023/06/09 08:43:42;;;;;;;5.07;2.00;;;16.50;99.90;;;;;;4972588;28;20206;-73
2023/06/09 08:46:14;;;;;;;5.53;1.90;;;16.40;99.90;;;;;;4972765;28;20216;-74
2023/06/09 08:48:53;;;;;;;4.82;1.70;;;16.40;99.90;;;;;;4973371;28;20200;-74
2023/06/09 08:51:25;;;;;;;4.35;1.75;;;16.40;99.90;;;;;;4973359;28;20220;-74
2023/06/09 08:53:57;;;;;;;2.90;1.55;;;16.40;99.90;;;;;;4973018;28;20204;-74
2023/06/09 08:56:28;;;;;;;3.65;1.40;;;16.30;99.90;;;;;;4973266;28;20204;-74
2023/06/09 08:58:59;;;;;;;2.22;1.48;;;16.30;99.90;;;;;;4971778;28;20705;-73
2023/06/09 09:01:31;;;;;;;3.90;1.23;;;16.30;99.90;;;;;;4972372;28;20207;-73
2023/06/09 09:04:04;;;;;;;2.58;1.27;;;16.30;99.90;;;;;;4971718;28;20200;-74
2023/06/09 09:06:37;;;;;;;3.10;1.10;;;16.30;99.90;;;;;;4973414;28;20216;-74
2023/06/09 09:09:08;;;;;;;3.35;1.08;;;16.20;99.90;;;;;;4972170;28;20219;-74
2023/06/09 09:11:39;;;;;;;2.85;1.00;;;16.20;99.90;;;;;;4973228;28;20231;-74
2023/06/09 09:14:14;;;;;;;2.30;1.10;;;16.20;99.90;;;;;;4976213;28;20196;-74
2023/06/09 09:16:45;;;;;;;1.40;1.08;;;16.10;99.90;;;;;;4976355;28;20199;-74
2023/06/09 09:19:26;;;;;;;1.85;1.20;;;16.10;99.90;;;;;;4977052;28;20200;-74
2023/06/09 09:21:58;;;;;;;3.17;1.17;;;16.10;99.90;;;;;;4974481;28;20235;-74
2023/06/09 09:24:32;;;;;;;3.10;1.30;;;16.10;99.90;;;;;;4972185;28;20212;-74
2023/06/09 09:27:04;;;;;;;1.55;1.10;;;16.10;99.90;;;;;;4976040;28;20201;-74
2023/06/09 09:29:43;;;;;;;1.30;0.88;;;16.00;99.90;;;;;;4976793;28;20283;-74
2023/06/09 09:32:15;;;;;;;2.28;1.02;;;16.00;99.90;;;;;;4973006;28;20606;-73
2023/06/09 09:34:48;;;;;;;1.38;1.10;;;16.00;99.90;;;;;;4972731;28;20684;-74
2023/06/09 09:37:20;;;;;;;1.67;0.90;;;15.90;99.90;;;;;;4976040;28;20196;-74
2023/06/09 09:39:55;;;;;;;1.67;0.90;;;15.90;99.90;;;;;;4976832;28;20240;-74
2023/06/09 09:42:31;;;;;;;1.05;0.80;;;15.90;99.90;;;;;;4975936;28;20558;-74
2023/06/09 09:45:07;;;;;;;1.70;0.90;;;15.90;99.90;;;;;;4975117;28;20205;-74
2023/06/09 09:47:38;;;;;;;1.30;0.93;;;15.80;99.90;;;;;;4975836;28;20204;-73
2023/06/09 09:50:13;;;;;;;2.33;1.00;;;15.80;99.90;;;;;;4973598;28;20228;-74
2023/06/09 09:52:44;;;;;;;1.88;0.88;;;15.70;99.90;;;;;;4975787;28;20223;-74
2023/06/09 09:55:16;;;;;;;1.98;0.90;;;15.70;99.90;;;;;;4975921;28;20284;-74
2023/06/09 09:57:48;;;;;;;1.35;0.85;;;15.60;99.90;;;;;;4975711;28;20220;-74
2023/06/09 10:00:20;;;;;;;2.42;1.00;;;15.60;99.90;;;;;;4975304;28;20236;-73
2023/06/09 10:02:53;;;;;;;1.38;1.00;;;15.60;99.90;;;;;;4975419;28;20199;-73
2023/06/09 10:05:27;;;;;;;1.35;0.90;;;15.50;99.90;;;;;;4975012;28;20271;-74
2023/06/09 10:08:02;;;;;;;2.10;1.10;;;15.50;99.90;;;;;;4964403;28;20200;-74
2023/06/09 10:10:34;;;;;;;1.77;1.05;;;15.50;99.90;;;;;;4976651;28;20203;-74
2023/06/09 10:13:06;;;;;;;1.40;0.95;;;15.50;99.90;;;;;;4974210;28;20200;-74
2023/06/09 10:15:38;;;;;;;1.35;0.90;;;15.40;99.90;;;;;;4975221;28;20627;-74
2023/06/09 10:18:11;;;;;;;1.60;0.93;;;15.40;99.90;;;;;;4974431;28;20202;-74
2023/06/09 10:20:44;;;;;;;2.45;1.20;;;15.40;99.90;;;;;;4975109;28;20282;-74
2023/06/09 10:23:16;;;;;;;1.35;1.05;;;15.30;99.90;;;;;;4972401;28;20651;-73
2023/06/09 10:25:50;;;;;;;1.52;1.02;;;15.20;99.90;;;;;;4969104;28;20227;-74
2023/06/09 10:28:22;;;;;;;1.73;1.00;;;15.10;99.90;;;;;;4975856;28;20235;-74
2023/06/09 10:30:53;;;;;;;2.97;1.25;;;15.10;99.90;;;;;;4975683;28;20656;-73
2023/06/09 10:33:32;;;;;;;2.58;1.17;;;15.10;99.90;;;;;;4973033;28;20199;-74
2023/06/09 10:36:09;;;;;;;2.33;1.10;;;15.00;99.90;;;;;;4967280;28;20275;-73
2023/06/09 10:38:45;;;;;;;1.85;1.02;;;15.00;99.90;;;;;;4973430;28;20204;-73
2023/06/09 10:41:22;;;;;;;1.88;1.05;;;15.00;99.90;;;;;;4975217;28;20663;-73
2023/06/09 10:44:09;;;;;;;1.45;1.05;;;15.00;99.90;;;;;;4973546;28;20676;-73
2023/06/09 10:46:45;;;;;;;1.80;0.93;;;15.00;99.90;;;;;;4973893;28;20200;-73
2023/06/09 10:49:42;;;;;;;1.20;0.90;;;15.00;99.90;;;;;;4975914;28;20219;-73
2023/06/09 10:52:57;;;;;;;2.42;1.00;;;15.00;99.90;;;;;;4969419;28;20643;-73
2023/06/09 10:55:30;;;;;;;1.83;1.00;;;15.00;99.90;;;;;;4974523;28;20204;-73
2023/06/09 10:58:01;;;;;;;1.92;0.93;;;14.90;99.90;;;;;;4973672;28;20196;-73
2023/06/09 11:01:08;;;;;;;2.10;1.10;;;14.90;99.90;;;;;;4974866;28;20584;-73
2023/06/09 11:03:39;;;;;;;4.15;1.00;;;14.90;99.90;;;;;;4970859;28;20236;-73
2023/06/09 11:06:10;;;;;;;2.58;1.20;;;14.80;99.90;;;;;;4973240;28;20561;-73
2023/06/09 11:09:13;;;;;;;1.58;0.90;;;14.80;99.90;;;;;;4970372;28;20206;-73
2023/06/09 11:11:55;;;;;;;2.53;0.98;;;14.80;99.90;;;;;;4962236;28;20278;-73
2023/06/09 11:14:55;;;;;;;2.03;1.05;;;14.70;99.90;;;;;;4973993;28;20401;-73
2023/06/09 11:17:30;;;;;;;4.68;1.08;;;14.70;99.90;;;;;;4974481;28;20196;-73
2023/06/09 11:20:17;;;;;;;2.83;1.08;;;14.60;99.90;;;;;;4975182;28;20638;-72
2023/06/09 11:23:08;;;;;;;3.72;1.27;;;14.60;99.90;;;;;;4973087;28;20287;-73
2023/06/09 11:25:41;;;;;;;4.22;1.30;;;14.60;99.90;;;;;;4974455;28;20739;-73
2023/06/09 11:28:23;;;;;;;3.50;1.40;;;14.60;99.90;;;;;;4974849;28;20199;-73
2023/06/09 11:31:08;;;;;;;2.20;1.30;;;14.50;99.90;;;;;;4982608;28;20198;-73
2023/06/09 11:33:53;;;;;;;2.40;1.08;;;14.50;99.90;;;;;;4975274;28;20215;-73
2023/06/09 11:36:27;;;;;;;2.78;1.10;;;14.50;99.90;;;;;;4975420;28;20222;-73
2023/06/09 11:39:07;;;;;;;3.70;1.15;;;14.50;99.90;;;;;;4974015;28;20595;-74
2023/06/09 11:41:40;;;;;;;2.50;1.00;;;14.50;99.90;;;;;;4974297;28;20607;-75
2023/06/09 11:44:12;;;;;;;3.60;1.00;;;14.50;99.90;;;;;;4975169;28;20192;-74
2023/06/09 11:46:43;;;;;;;4.65;0.90;;;14.50;99.90;;;;;;4975248;28;20235;-73
2023/06/09 11:49:14;;;;;;;4.82;1.10;;;14.50;99.90;;;;;;4974892;28;20559;-73
2023/06/09 11:51:59;;;;;;;3.20;1.00;;;14.40;99.90;;;;;;4974221;28;20224;-74
2023/06/09 11:54:49;;;;;;;3.50;0.88;;;14.40;99.90;;;;;;4973975;28;20680;-73
2023/06/09 11:57:24;;;;;;;2.45;0.90;;;14.40;99.90;;;;;;4975125;28;20210;-74
2023/06/09 11:59:55;;;;;;;2.90;1.15;;;14.40;99.90;;;;;;4974224;28;20231;-73
2023/06/09 12:02:27;;;;;;;6.20;1.13;;;14.30;99.90;;;;;;4974798;28;20192;-73
2023/06/09 12:05:00;;;;;;;4.60;1.27;;;14.30;99.90;;;;;;4974872;28;20196;-73
2023/06/09 12:07:31;;;;;;;4.28;1.00;;;14.30;99.90;;;;;;4968301;28;20196;-73
2023/06/09 12:10:03;;;;;;;2.47;1.08;;;14.30;99.90;;;;;;4972035;28;20633;-73
2023/06/09 12:12:46;;;;;;;3.88;1.08;;;14.20;99.90;;;;;;4975020;28;20216;-73
2023/06/09 12:15:18;;;;;;;4.18;1.00;;;14.20;99.90;;;;;;4955553;28;20195;-73
2023/06/09 12:17:51;;;;;;;3.80;1.00;;;14.20;99.90;;;;;;4955240;28;20193;-73
2023/06/09 12:20:32;;;;;;;4.78;0.93;;;14.20;99.90;;;;;;4955379;28;20547;-73
2023/06/09 12:23:06;;;;;;;2.72;1.00;;;14.20;99.90;;;;;;4973582;28;20559;-73
2023/06/09 12:25:40;;;;;;;5.40;1.08;;;14.20;99.90;;;;;;4974597;28;20192;-74
2023/06/09 12:28:22;;;;;;;3.35;1.25;;;14.30;99.90;;;;;;4971925;28;20206;-74
2023/06/09 12:30:54;;;;;;;2.45;0.88;;;14.30;99.90;;;;;;4972528;28;20290;-74
2023/06/09 12:33:26;;;;;;;3.55;1.20;;;14.30;99.90;;;;;;4974372;28;20711;-74
2023/06/09 12:35:58;;;;;;;3.75;1.20;;;14.30;99.90;;;;;;4974868;28;20711;-74
2023/06/09 12:38:31;;;;;;;2.80;1.00;;;14.30;99.90;;;;;;4974669;28;20207;-74
2023/06/09 12:41:08;;;;;;;3.50;1.05;;;14.20;99.90;;;;;;4973652;28;20216;-74
2023/06/09 12:43:51;;;;;;;4.40;1.20;;;14.20;99.90;;;;;;4972938;28;20211;-74
2023/06/09 12:46:27;;;;;;;7.93;1.00;;;14.20;99.90;;;;;;4975545;28;20668;-74
2023/06/09 12:49:01;;;;;;;5.25;1.00;;;14.20;99.90;;;;;;4975192;28;20219;-74
2023/06/09 12:51:32;;;;;;;2.72;0.70;;;14.20;99.90;;;;;;4976503;28;20674;-74
2023/06/09 12:54:04;;;;;;;2.78;0.90;;;14.20;99.90;;;;;;4977733;28;20214;-74
2023/06/09 12:56:36;;;;;;;3.35;0.93;;;14.20;99.90;;;;;;4977014;28;20196;-73
2023/06/09 12:59:09;;;;;;;4.05;0.80;;;14.20;99.90;;;;;;4978306;28;20240;-74
2023/06/09 13:01:40;;;;;;;3.97;0.88;;;14.20;99.90;;;;;;4974426;28;20200;-74
2023/06/09 13:04:14;;;;;;;2.75;0.95;;;14.20;99.90;;;;;;4978180;28;20199;-74
2023/06/09 13:06:45;;;;;;;6.72;0.98;;;14.20;99.90;;;;;;4977633;28;20234;-74
2023/06/09 13:09:17;;;;;;;3.42;0.90;;;14.20;99.90;;;;;;4977960;28;20196;-73
2023/06/09 13:11:48;;;;;;;2.33;0.98;;;14.20;99.90;;;;;;4974480;28;20218;-74
2023/06/09 13:14:21;;;;;;;3.30;0.90;;;14.20;99.90;;;;;;4977050;28;20207;-74
2023/06/09 13:16:52;;;;;;;3.88;0.90;;;14.20;99.90;;;;;;4974745;28;20201;-74
2023/06/09 13:19:25;;;;;;;3.45;1.00;;;14.20;99.90;;;;;;4976413;28;20219;-74
2023/06/09 13:21:56;;;;;;;2.85;0.82;;;14.20;99.90;;;;;;4975974;28;20740;-73